createdAt,value
2017-09-08T00:00:23.035Z,0
2017-09-08T00:01:03.489Z,0
2017-09-08T00:01:43.965Z,0
2017-09-08T00:02:24.523Z,0
2017-09-08T00:03:04.974Z,0
2017-09-08T00:03:45.417Z,0
2017-09-08T00:04:26.107Z,0
2017-09-08T00:05:06.552Z,0
2017-09-08T00:05:47.004Z,0
2017-09-08T00:06:27.552Z,0
2017-09-08T00:07:08.002Z,0
2017-09-08T00:07:48.456Z,0
2017-09-08T00:08:28.942Z,0
2017-09-08T00:09:09.396Z,0
2017-09-08T00:09:49.855Z,0
2017-09-08T00:10:30.391Z,0
2017-09-08T00:11:10.875Z,0
2017-09-08T00:11:51.332Z,0
2017-09-08T00:12:31.791Z,0
2017-09-08T00:13:12.256Z,0
2017-09-08T00:13:52.700Z,0
2017-09-08T00:14:33.156Z,0
2017-09-08T00:15:13.611Z,0
2017-09-08T00:15:54.066Z,0
2017-09-08T00:16:34.525Z,0
2017-09-08T00:17:14.980Z,0
2017-09-08T00:17:55.436Z,0
2017-09-08T00:18:35.889Z,0
2017-09-08T00:19:16.338Z,0
2017-09-08T00:19:56.793Z,0
2017-09-08T00:20:37.243Z,0
2017-09-08T00:21:17.698Z,0
2017-09-08T00:21:58.157Z,0
2017-09-08T00:22:38.603Z,0
2017-09-08T00:23:19.070Z,0
2017-09-08T00:23:59.517Z,0
2017-09-08T00:24:39.943Z,0
2017-09-08T00:25:20.396Z,0
2017-09-08T00:26:00.876Z,0
2017-09-08T00:26:41.330Z,0
2017-09-08T00:27:21.782Z,0
2017-09-08T00:28:02.249Z,0
2017-09-08T00:28:42.693Z,0
2017-09-08T00:29:23.155Z,0
2017-09-08T00:30:03.610Z,0
2017-09-08T00:30:44.065Z,0
2017-09-08T00:31:24.520Z,0
2017-09-08T00:32:04.973Z,0
2017-09-08T00:32:45.418Z,0
2017-09-08T00:33:25.865Z,0
2017-09-08T00:34:06.426Z,0
2017-09-08T00:34:46.873Z,0
2017-09-08T00:35:27.315Z,0
2017-09-08T00:36:07.771Z,0
2017-09-08T00:36:48.224Z,0
2017-09-08T00:37:28.671Z,0
2017-09-08T00:38:09.120Z,0
2017-09-08T00:38:49.583Z,0
2017-09-08T00:39:30.047Z,0
2017-09-08T00:40:10.498Z,0
2017-09-08T00:40:50.961Z,0
2017-09-08T00:41:31.429Z,0
2017-09-08T00:42:12.031Z,0
2017-09-08T00:42:52.477Z,0
2017-09-08T00:43:32.938Z,0
2017-09-08T00:44:13.389Z,0
2017-09-08T00:44:53.844Z,0
2017-09-08T00:45:34.322Z,0
2017-09-08T00:46:14.777Z,0
2017-09-08T00:46:55.233Z,0
2017-09-08T00:47:35.684Z,0
2017-09-08T00:48:16.147Z,0
2017-09-08T00:48:56.599Z,0
2017-09-08T00:49:37.048Z,0
2017-09-08T00:50:17.491Z,0
2017-09-08T00:50:57.951Z,0
2017-09-08T00:51:38.410Z,0
2017-09-08T00:52:18.869Z,0
2017-09-08T00:52:59.320Z,0
2017-09-08T00:53:39.771Z,0
2017-09-08T00:54:20.220Z,0
2017-09-08T00:55:00.681Z,0
2017-09-08T00:55:41.134Z,0
2017-09-08T00:56:21.580Z,0
2017-09-08T00:57:02.043Z,0
2017-09-08T00:57:42.508Z,0
2017-09-08T00:58:22.970Z,0
2017-09-08T00:59:03.418Z,0
2017-09-08T00:59:43.898Z,0
2017-09-08T01:00:24.313Z,0
2017-09-08T01:01:04.762Z,0
2017-09-08T01:01:45.218Z,0
2017-09-08T01:02:25.674Z,0
2017-09-08T01:03:06.141Z,0
2017-09-08T01:03:46.584Z,0
2017-09-08T01:04:27.111Z,0
2017-09-08T01:05:07.554Z,0
2017-09-08T01:05:48.035Z,0
2017-09-08T01:06:28.449Z,0
2017-09-08T01:07:08.898Z,0
2017-09-08T01:07:49.381Z,0
2017-09-08T01:10:07.247Z,0
2017-09-08T01:10:47.696Z,0
2017-09-08T01:11:28.162Z,0
2017-09-08T01:12:08.613Z,0
2017-09-08T01:12:49.067Z,0
2017-09-08T01:13:29.527Z,0
2017-09-08T01:14:09.979Z,0
2017-09-08T01:14:50.457Z,0
2017-09-08T01:15:30.898Z,0
2017-09-08T01:16:11.346Z,0
2017-09-08T01:16:51.800Z,0
2017-09-08T01:17:32.262Z,0
2017-09-08T01:18:12.719Z,0
2017-09-08T01:18:53.171Z,0
2017-09-08T01:19:33.624Z,0
2017-09-08T01:20:14.089Z,0
2017-09-08T01:20:54.541Z,0
2017-09-08T01:21:34.994Z,0
2017-09-08T01:22:15.444Z,0
2017-09-08T01:22:56.334Z,0
2017-09-08T01:23:36.794Z,0
2017-09-08T01:24:17.234Z,0
2017-09-08T01:24:57.689Z,0
2017-09-08T01:25:38.148Z,0
2017-09-08T01:26:18.601Z,0
2017-09-08T01:26:59.059Z,0
2017-09-08T01:27:39.516Z,0
2017-09-08T01:28:19.973Z,0
2017-09-08T01:29:00.431Z,0
2017-09-08T01:29:40.887Z,0
2017-09-08T01:30:21.386Z,0
2017-09-08T01:31:01.838Z,0
2017-09-08T01:31:42.332Z,0
2017-09-08T01:32:22.762Z,0
2017-09-08T01:33:03.217Z,0
2017-09-08T01:33:43.679Z,0
2017-09-08T01:34:24.131Z,0
2017-09-08T01:35:04.581Z,0
2017-09-08T01:35:45.034Z,0
2017-09-08T01:36:25.480Z,0
2017-09-08T01:37:05.934Z,0
2017-09-08T01:37:46.379Z,0
2017-09-08T01:38:26.827Z,0
2017-09-08T01:39:07.276Z,0
2017-09-08T01:39:47.739Z,0
2017-09-08T01:40:28.191Z,0
2017-09-08T01:41:08.639Z,0
2017-09-08T01:41:49.100Z,0
2017-09-08T01:42:29.551Z,0
2017-09-08T01:43:10.001Z,0
2017-09-08T01:43:50.460Z,0
2017-09-08T01:44:30.918Z,0
2017-09-08T01:45:11.369Z,0
2017-09-08T01:45:51.826Z,0
2017-09-08T01:46:32.282Z,0
2017-09-08T01:47:12.727Z,0
2017-09-08T01:47:53.179Z,0
2017-09-08T01:48:33.639Z,0
2017-09-08T01:49:14.103Z,0
2017-09-08T01:49:54.561Z,0
2017-09-08T01:50:35.010Z,0
2017-09-08T01:51:15.460Z,0
2017-09-08T01:51:55.909Z,0
2017-09-08T01:52:36.350Z,0
2017-09-08T01:53:16.797Z,0
2017-09-08T01:53:57.250Z,0
2017-09-08T01:54:37.713Z,0
2017-09-08T01:55:18.165Z,0
2017-09-08T01:55:58.621Z,0
2017-09-08T01:56:39.072Z,0
2017-09-08T01:57:19.515Z,0
2017-09-08T01:57:59.987Z,0
2017-09-08T01:58:40.448Z,0
2017-09-08T01:59:20.903Z,0
2017-09-08T02:00:01.425Z,0
2017-09-08T02:00:41.888Z,0
2017-09-08T02:01:22.339Z,0
2017-09-08T02:02:02.834Z,0
2017-09-08T02:02:43.286Z,0
2017-09-08T02:03:23.745Z,0
2017-09-08T02:04:04.213Z,0
2017-09-08T02:04:44.690Z,0
2017-09-08T02:05:25.135Z,0
2017-09-08T02:06:05.619Z,0
2017-09-08T02:06:46.072Z,0
2017-09-08T02:07:26.523Z,0
2017-09-08T02:08:06.974Z,0
2017-09-08T02:08:47.430Z,0
2017-09-08T02:09:27.883Z,0
2017-09-08T02:10:08.342Z,0
2017-09-08T02:12:41.357Z,0
2017-09-08T02:13:21.844Z,0
2017-09-08T02:14:02.328Z,0
2017-09-08T02:16:15.096Z,0
2017-09-08T02:16:55.553Z,0
2017-09-08T02:17:36.006Z,0
2017-09-08T02:18:16.455Z,0
2017-09-08T02:18:56.902Z,0
2017-09-08T02:19:37.357Z,0
2017-09-08T02:20:17.800Z,0
2017-09-08T02:20:58.254Z,0
2017-09-08T02:21:38.710Z,0
2017-09-08T02:22:19.163Z,0
2017-09-08T02:22:59.615Z,0
2017-09-08T02:23:40.055Z,0
2017-09-08T02:24:20.530Z,0
2017-09-08T02:25:00.984Z,0
2017-09-08T02:25:41.432Z,0
2017-09-08T02:26:21.880Z,0
2017-09-08T02:27:02.324Z,0
2017-09-08T02:27:42.776Z,0
2017-09-08T02:28:23.229Z,0
2017-09-08T02:29:03.685Z,0
2017-09-08T02:29:44.136Z,0
2017-09-08T02:30:24.590Z,0
2017-09-08T02:31:05.040Z,0
2017-09-08T02:31:45.503Z,0
2017-09-08T02:32:25.964Z,0
2017-09-08T02:33:06.417Z,0
2017-09-08T02:33:46.865Z,0
2017-09-08T02:34:27.318Z,0
2017-09-08T02:35:07.769Z,0
2017-09-08T02:35:48.225Z,0
2017-09-08T02:36:28.680Z,0
2017-09-08T02:37:09.129Z,0
2017-09-08T02:37:49.587Z,0
2017-09-08T02:38:30.045Z,0
2017-09-08T02:39:10.491Z,0
2017-09-08T02:39:50.955Z,0
2017-09-08T02:40:31.474Z,0
2017-09-08T02:41:11.908Z,0
2017-09-08T02:41:52.367Z,0
2017-09-08T02:42:32.831Z,0
2017-09-08T02:43:13.285Z,0
2017-09-08T02:43:53.739Z,0
2017-09-08T02:44:34.187Z,0
2017-09-08T02:45:14.647Z,0
2017-09-08T02:45:55.101Z,0
2017-09-08T02:46:35.556Z,0
2017-09-08T02:47:16.002Z,0
2017-09-08T02:47:56.456Z,0
2017-09-08T02:48:36.909Z,0
2017-09-08T02:49:17.372Z,0
2017-09-08T02:49:57.825Z,0
2017-09-08T02:50:38.292Z,0
2017-09-08T02:51:18.746Z,0
2017-09-08T02:51:59.199Z,0
2017-09-08T02:52:39.651Z,0
2017-09-08T02:53:20.106Z,0
2017-09-08T02:54:00.555Z,0
2017-09-08T02:54:41.012Z,0
2017-09-08T02:55:21.460Z,0
2017-09-08T02:56:02.008Z,0
2017-09-08T02:56:42.474Z,0
2017-09-08T02:57:22.926Z,0
2017-09-08T02:58:03.408Z,0
2017-09-08T02:58:43.881Z,0
2017-09-08T02:59:24.330Z,0
2017-09-08T03:00:04.832Z,0
2017-09-08T03:00:45.288Z,0
2017-09-08T03:01:25.747Z,0
2017-09-08T03:02:06.202Z,0
2017-09-08T03:02:46.655Z,0
2017-09-08T03:03:27.111Z,0
2017-09-08T03:04:07.580Z,0
2017-09-08T03:04:48.033Z,0
2017-09-08T03:05:28.487Z,0
2017-09-08T03:06:08.936Z,0
2017-09-08T03:06:49.389Z,0
2017-09-08T03:07:29.851Z,0
2017-09-08T03:08:10.304Z,0
2017-09-08T03:08:50.759Z,0
2017-09-08T03:09:31.223Z,0
2017-09-08T03:10:11.701Z,0
2017-09-08T03:10:52.204Z,0
2017-09-08T03:11:32.655Z,0
2017-09-08T03:12:13.110Z,0
2017-09-08T03:12:53.563Z,0
2017-09-08T03:13:34.019Z,0
2017-09-08T03:14:14.469Z,0
2017-09-08T03:14:54.925Z,0
2017-09-08T03:15:35.377Z,0
2017-09-08T03:16:15.835Z,0
2017-09-08T03:16:56.290Z,0
2017-09-08T03:17:36.743Z,0
2017-09-08T03:18:17.199Z,0
2017-09-08T03:18:57.652Z,0
2017-09-08T03:19:38.110Z,0
2017-09-08T03:20:18.562Z,0
2017-09-08T03:20:59.016Z,0
2017-09-08T03:21:39.481Z,0
2017-09-08T03:22:19.924Z,0
2017-09-08T03:23:00.373Z,0
2017-09-08T03:23:40.823Z,0
2017-09-08T03:24:21.278Z,0
2017-09-08T03:25:01.734Z,0
2017-09-08T03:25:42.194Z,0
2017-09-08T03:26:22.651Z,0
2017-09-08T03:27:03.099Z,0
2017-09-08T03:27:43.549Z,0
2017-09-08T03:28:24.000Z,0
2017-09-08T03:29:04.450Z,0
2017-09-08T03:29:44.911Z,0
2017-09-08T03:30:25.378Z,0
2017-09-08T03:31:05.937Z,0
2017-09-08T03:31:46.383Z,0
2017-09-08T03:32:26.840Z,0
2017-09-08T03:33:07.314Z,0
2017-09-08T03:33:47.735Z,0
2017-09-08T03:34:28.179Z,0
2017-09-08T03:35:08.683Z,0
2017-09-08T03:35:49.136Z,0
2017-09-08T03:36:29.592Z,0
2017-09-08T03:37:10.048Z,0
2017-09-08T03:37:50.514Z,0
2017-09-08T03:38:30.964Z,0
2017-09-08T03:39:11.537Z,0
2017-09-08T03:39:51.978Z,0
2017-09-08T03:40:32.435Z,0
2017-09-08T03:41:12.893Z,0
2017-09-08T03:41:53.349Z,0
2017-09-08T03:42:33.799Z,0
2017-09-08T03:43:14.287Z,0
2017-09-08T03:43:54.738Z,0
2017-09-08T03:44:35.195Z,0
2017-09-08T03:45:15.674Z,0
2017-09-08T03:45:56.133Z,0
2017-09-08T03:46:36.586Z,0
2017-09-08T03:47:17.049Z,0
2017-09-08T03:47:57.506Z,0
2017-09-08T03:48:37.954Z,0
2017-09-08T03:49:18.403Z,0
2017-09-08T03:49:58.854Z,0
2017-09-08T03:50:39.302Z,0
2017-09-08T03:51:19.753Z,0
2017-09-08T03:52:00.202Z,0
2017-09-08T03:52:40.656Z,0
2017-09-08T03:53:21.173Z,0
2017-09-08T03:54:01.619Z,0
2017-09-08T03:54:42.071Z,0
2017-09-08T03:55:22.581Z,0
2017-09-08T03:56:03.023Z,0
2017-09-08T03:56:43.477Z,0
2017-09-08T03:57:23.931Z,0
2017-09-08T03:58:04.410Z,0
2017-09-08T03:58:44.853Z,0
2017-09-08T03:59:25.302Z,0
2017-09-08T04:00:05.759Z,0
2017-09-08T04:00:46.214Z,0
2017-09-08T04:01:26.753Z,0
2017-09-08T04:02:07.228Z,0
2017-09-08T04:02:47.685Z,0
2017-09-08T04:03:28.147Z,0
2017-09-08T04:04:08.600Z,0
2017-09-08T04:04:49.050Z,0
2017-09-08T04:05:29.514Z,0
2017-09-08T04:06:09.953Z,0
2017-09-08T04:06:50.401Z,0
2017-09-08T04:07:30.851Z,0
2017-09-08T04:08:11.306Z,0
2017-09-08T04:08:51.754Z,0
2017-09-08T04:09:32.211Z,0
2017-09-08T04:10:12.661Z,0
2017-09-08T04:10:53.301Z,0
2017-09-08T04:13:06.161Z,0
2017-09-08T04:13:46.606Z,0
2017-09-08T04:14:27.214Z,0
2017-09-08T04:15:07.673Z,0
2017-09-08T04:15:48.119Z,0
2017-09-08T04:16:28.572Z,0
2017-09-08T04:17:09.019Z,0
2017-09-08T04:17:49.473Z,0
2017-09-08T04:18:29.920Z,0
2017-09-08T04:19:10.365Z,0
2017-09-08T04:19:50.825Z,0
2017-09-08T04:20:31.281Z,0
2017-09-08T04:21:11.727Z,0
2017-09-08T04:21:52.222Z,0
2017-09-08T04:22:32.679Z,0
2017-09-08T04:23:13.125Z,0
2017-09-08T04:23:53.579Z,0
2017-09-08T04:24:34.032Z,0
2017-09-08T04:25:14.491Z,0
2017-09-08T04:25:54.938Z,0
2017-09-08T04:26:35.400Z,0
2017-09-08T04:27:15.851Z,0
2017-09-08T04:27:56.305Z,0
2017-09-08T04:28:36.763Z,0
2017-09-08T04:29:17.205Z,0
2017-09-08T04:29:57.660Z,0
2017-09-08T04:30:38.114Z,0
2017-09-08T04:31:18.576Z,0
2017-09-08T04:31:59.035Z,0
2017-09-08T04:32:39.486Z,0
2017-09-08T04:33:19.939Z,0
2017-09-08T04:34:00.394Z,0
2017-09-08T04:34:40.846Z,0
2017-09-08T04:35:21.337Z,0
2017-09-08T04:36:01.800Z,0
2017-09-08T04:36:42.240Z,0
2017-09-08T04:37:22.703Z,0
2017-09-08T04:38:03.147Z,0
2017-09-08T04:38:43.596Z,0
2017-09-08T04:41:11.684Z,0
2017-09-08T04:41:52.134Z,0
2017-09-08T04:42:32.588Z,0
2017-09-08T04:43:13.083Z,0
2017-09-08T04:43:53.529Z,0
2017-09-08T04:44:34.015Z,0
2017-09-08T04:45:14.436Z,0
2017-09-08T04:45:54.892Z,0
2017-09-08T04:46:35.318Z,0
2017-09-08T04:47:15.777Z,0
2017-09-08T04:49:48.817Z,0
2017-09-08T04:50:29.268Z,0
2017-09-08T04:51:09.727Z,0
2017-09-08T04:51:50.173Z,0
2017-09-08T04:52:30.625Z,0
2017-09-08T04:55:03.863Z,0
2017-09-08T04:55:44.231Z,0
2017-09-08T04:56:24.680Z,0
2017-09-08T04:57:05.171Z,0
2017-09-08T04:57:45.607Z,0
2017-09-08T04:58:26.057Z,0
2017-09-08T04:59:06.509Z,0
2017-09-08T04:59:46.951Z,0
2017-09-08T05:00:27.404Z,0
2017-09-08T05:01:07.872Z,0
2017-09-08T05:01:48.349Z,0
2017-09-08T05:02:28.845Z,0
2017-09-08T05:03:09.468Z,0
2017-09-08T05:05:37.470Z,0
2017-09-08T05:06:17.922Z,0
2017-09-08T05:06:58.376Z,0
2017-09-08T05:07:38.828Z,0
2017-09-08T05:08:19.285Z,0
2017-09-08T05:08:59.736Z,0
2017-09-08T05:09:40.186Z,0
2017-09-08T05:10:20.633Z,0
2017-09-08T05:11:01.153Z,0
2017-09-08T05:11:41.632Z,0
2017-09-08T05:12:22.085Z,0
2017-09-08T05:13:02.528Z,0
2017-09-08T05:13:42.981Z,0
2017-09-08T05:14:23.434Z,0
2017-09-08T05:15:03.874Z,0
2017-09-08T05:15:44.324Z,0
2017-09-08T05:16:24.774Z,0
2017-09-08T05:17:05.222Z,0
2017-09-08T05:17:45.676Z,0
2017-09-08T05:18:26.125Z,0
2017-09-08T05:19:06.625Z,0
2017-09-08T05:19:47.080Z,0
2017-09-08T05:20:27.534Z,0
2017-09-08T05:21:07.981Z,0
2017-09-08T05:21:48.438Z,0
2017-09-08T05:22:28.889Z,0
2017-09-08T05:23:09.356Z,0
2017-09-08T05:23:49.803Z,0
2017-09-08T05:24:30.263Z,0
2017-09-08T05:25:10.752Z,0
2017-09-08T05:25:51.203Z,0
2017-09-08T05:26:31.652Z,0
2017-09-08T05:27:12.100Z,0
2017-09-08T05:27:52.540Z,0
2017-09-08T05:28:32.985Z,0
2017-09-08T05:29:13.437Z,0
2017-09-08T05:29:53.900Z,0
2017-09-08T05:30:34.358Z,0
2017-09-08T05:31:14.810Z,0
2017-09-08T05:31:55.265Z,0
2017-09-08T05:32:35.719Z,0
2017-09-08T05:33:16.171Z,0
2017-09-08T05:33:56.637Z,0
2017-09-08T05:34:37.081Z,0
2017-09-08T05:35:17.529Z,0
2017-09-08T05:35:57.990Z,0
2017-09-08T05:36:38.445Z,0
2017-09-08T05:37:18.909Z,0
2017-09-08T05:37:59.376Z,0
2017-09-08T05:38:39.816Z,0
2017-09-08T05:39:20.273Z,0
2017-09-08T05:40:00.735Z,0
2017-09-08T05:40:41.196Z,0
2017-09-08T05:41:21.714Z,0
2017-09-08T05:42:02.171Z,0
2017-09-08T05:42:42.632Z,0
2017-09-08T05:43:23.085Z,0
2017-09-08T05:44:03.629Z,0
2017-09-08T05:44:44.087Z,0
2017-09-08T05:45:24.546Z,0
2017-09-08T05:46:05.032Z,0
2017-09-08T05:46:45.471Z,0
2017-09-08T05:47:25.917Z,0
2017-09-08T05:48:06.460Z,0
2017-09-08T05:48:46.912Z,0
2017-09-08T05:49:27.358Z,0
2017-09-08T05:50:07.821Z,0
2017-09-08T05:50:48.277Z,0
2017-09-08T05:51:28.736Z,5
2017-09-08T05:52:09.192Z,5
2017-09-08T05:52:49.651Z,5
2017-09-08T05:53:30.111Z,5
2017-09-08T05:54:10.570Z,5
2017-09-08T05:54:51.023Z,5
2017-09-08T05:55:31.471Z,5
2017-09-08T05:56:11.926Z,5
2017-09-08T05:56:52.375Z,5
2017-09-08T05:57:32.826Z,5
2017-09-08T05:58:13.289Z,5
2017-09-08T05:58:53.732Z,5
2017-09-08T05:59:34.179Z,0
2017-09-08T06:00:14.629Z,0
2017-09-08T06:00:55.088Z,0
2017-09-08T06:01:35.534Z,0
2017-09-08T06:02:15.984Z,0
2017-09-08T06:02:56.433Z,0
2017-09-08T06:03:36.883Z,0
2017-09-08T06:04:17.331Z,5
2017-09-08T06:04:57.782Z,5
2017-09-08T06:05:38.232Z,5
2017-09-08T06:06:18.676Z,5
2017-09-08T06:06:59.135Z,5
2017-09-08T06:07:39.584Z,5
2017-09-08T06:08:20.048Z,5
2017-09-08T06:09:00.500Z,5
2017-09-08T06:09:40.950Z,5
2017-09-08T06:10:21.401Z,5
2017-09-08T06:11:01.860Z,5
2017-09-08T06:11:42.315Z,5
2017-09-08T06:12:22.763Z,5
2017-09-08T06:13:03.225Z,5
2017-09-08T06:13:43.678Z,5
2017-09-08T06:14:24.129Z,5
2017-09-08T06:15:04.573Z,5
2017-09-08T06:15:45.027Z,5
2017-09-08T06:16:25.500Z,5
2017-09-08T06:17:05.959Z,5
2017-09-08T06:17:46.405Z,5
2017-09-08T06:18:26.857Z,5
2017-09-08T06:19:07.373Z,5
2017-09-08T06:19:47.831Z,5
2017-09-08T06:20:28.284Z,5
2017-09-08T06:21:08.742Z,5
2017-09-08T06:21:49.190Z,5
2017-09-08T06:22:29.709Z,5
2017-09-08T06:23:10.159Z,5
2017-09-08T06:23:50.613Z,5
2017-09-08T06:24:31.072Z,5
2017-09-08T06:25:11.528Z,5
2017-09-08T06:25:51.985Z,5
2017-09-08T06:26:32.435Z,5
2017-09-08T06:27:12.885Z,5
2017-09-08T06:27:53.332Z,5
2017-09-08T06:28:33.785Z,5
2017-09-08T06:29:14.241Z,5
2017-09-08T06:29:54.691Z,5
2017-09-08T06:30:35.148Z,5
2017-09-08T06:31:15.599Z,5
2017-09-08T06:31:56.055Z,5
2017-09-08T06:32:36.510Z,5
2017-09-08T06:33:16.969Z,5
2017-09-08T06:33:57.419Z,5
2017-09-08T06:34:37.884Z,5
2017-09-08T06:35:18.330Z,5
2017-09-08T06:35:58.781Z,5
2017-09-08T06:36:39.237Z,5
2017-09-08T06:37:19.696Z,5
2017-09-08T06:38:00.148Z,5
2017-09-08T06:38:40.618Z,5
2017-09-08T06:39:21.069Z,5
2017-09-08T06:40:01.527Z,5
2017-09-08T06:40:41.980Z,5
2017-09-08T06:41:22.434Z,5
2017-09-08T06:42:02.887Z,5
2017-09-08T06:42:43.335Z,5
2017-09-08T06:43:23.832Z,5
2017-09-08T06:44:04.291Z,5
2017-09-08T06:44:44.749Z,5
2017-09-08T06:45:25.195Z,5
2017-09-08T06:46:05.699Z,5
2017-09-08T06:46:46.151Z,5
2017-09-08T06:47:26.608Z,5
2017-09-08T06:48:07.065Z,5
2017-09-08T06:48:47.517Z,5
2017-09-08T06:49:27.980Z,5
2017-09-08T06:50:08.428Z,5
2017-09-08T06:50:48.883Z,5
2017-09-08T06:51:29.337Z,5
2017-09-08T06:52:09.790Z,5
2017-09-08T06:52:50.246Z,5
2017-09-08T06:53:30.702Z,5
2017-09-08T06:54:11.154Z,5
2017-09-08T06:54:51.608Z,5
2017-09-08T06:55:32.063Z,5
2017-09-08T06:56:12.518Z,5
2017-09-08T06:56:52.975Z,5
2017-09-08T06:57:33.453Z,5
2017-09-08T06:58:13.895Z,5
2017-09-08T06:58:54.349Z,0
2017-09-08T06:59:34.807Z,0
2017-09-08T07:00:15.302Z,0
2017-09-08T07:00:55.742Z,0
2017-09-08T07:01:36.193Z,0
2017-09-08T07:02:16.655Z,0
2017-09-08T07:02:57.122Z,0
2017-09-08T07:03:37.574Z,0
2017-09-08T07:04:18.027Z,0
2017-09-08T07:04:58.482Z,0
2017-09-08T07:05:38.938Z,0
2017-09-08T07:06:19.393Z,0
2017-09-08T07:06:59.835Z,0
2017-09-08T07:07:40.283Z,0
2017-09-08T07:08:20.738Z,5
2017-09-08T07:09:01.218Z,0
2017-09-08T07:09:41.646Z,5
2017-09-08T07:10:22.215Z,5
2017-09-08T07:11:02.670Z,5
2017-09-08T07:11:43.122Z,5
2017-09-08T07:12:23.633Z,5
2017-09-08T07:13:04.081Z,5
2017-09-08T07:13:44.537Z,5
2017-09-08T07:14:24.989Z,5
2017-09-08T07:15:05.438Z,5
2017-09-08T07:15:45.889Z,5
2017-09-08T07:16:26.396Z,5
2017-09-08T07:17:06.841Z,5
2017-09-08T07:17:47.292Z,5
2017-09-08T07:18:27.743Z,5
2017-09-08T07:19:08.198Z,5
2017-09-08T07:19:48.653Z,5
2017-09-08T07:20:29.109Z,5
2017-09-08T07:21:09.569Z,5
2017-09-08T07:21:50.020Z,5
2017-09-08T07:22:30.509Z,5
2017-09-08T07:23:10.959Z,5
2017-09-08T07:23:51.413Z,5
2017-09-08T07:24:31.871Z,5
2017-09-08T07:25:12.321Z,5
2017-09-08T07:25:52.771Z,5
2017-09-08T07:26:33.221Z,5
2017-09-08T07:27:13.668Z,5
2017-09-08T07:27:54.121Z,5
2017-09-08T07:28:34.564Z,5
2017-09-08T07:29:15.015Z,5
2017-09-08T07:29:55.464Z,5
2017-09-08T07:30:35.922Z,5
2017-09-08T07:31:16.377Z,5
2017-09-08T07:31:56.832Z,10
2017-09-08T07:32:37.288Z,10
2017-09-08T07:33:17.736Z,10
2017-09-08T07:33:58.187Z,10
2017-09-08T07:34:38.643Z,10
2017-09-08T07:35:19.101Z,10
2017-09-08T07:35:59.551Z,10
2017-09-08T07:36:40.009Z,10
2017-09-08T07:37:20.470Z,10
2017-09-08T07:38:00.936Z,15
2017-09-08T07:38:41.388Z,15
2017-09-08T07:39:21.827Z,15
2017-09-08T07:40:02.281Z,15
2017-09-08T07:40:42.735Z,15
2017-09-08T07:41:23.186Z,20
2017-09-08T07:42:03.734Z,25
2017-09-08T07:42:44.142Z,20
2017-09-08T07:43:24.607Z,25
2017-09-08T07:44:05.040Z,25
2017-09-08T07:44:45.514Z,25
2017-09-08T07:45:25.999Z,25
2017-09-08T07:46:06.453Z,30
2017-09-08T07:46:46.899Z,35
2017-09-08T07:47:27.345Z,40
2017-09-08T07:48:07.800Z,50
2017-09-08T07:48:48.252Z,60
2017-09-08T07:49:28.703Z,65
2017-09-08T07:50:09.156Z,65
2017-09-08T07:50:49.628Z,60
2017-09-08T07:51:30.076Z,45
2017-09-08T07:52:10.531Z,40
2017-09-08T07:52:50.986Z,40
2017-09-08T07:53:31.446Z,35
2017-09-08T07:54:11.902Z,35
2017-09-08T07:54:52.355Z,35
2017-09-08T07:55:32.809Z,35
2017-09-08T07:56:13.261Z,35
2017-09-08T07:56:53.713Z,40
2017-09-08T07:57:34.175Z,40
2017-09-08T07:58:14.640Z,50
2017-09-08T07:58:55.081Z,65
2017-09-08T07:59:35.540Z,75
2017-09-08T08:00:15.990Z,75
2017-09-08T08:00:56.449Z,75
2017-09-08T08:01:36.909Z,70
2017-09-08T08:02:17.369Z,65
2017-09-08T08:02:57.826Z,75
2017-09-08T08:03:38.284Z,80
2017-09-08T08:04:18.753Z,80
2017-09-08T08:04:59.203Z,80
2017-09-08T08:05:39.651Z,80
2017-09-08T08:07:57.446Z,90
2017-09-08T08:08:37.900Z,85
2017-09-08T08:09:18.390Z,85
2017-09-08T08:09:58.851Z,70
2017-09-08T08:10:39.307Z,65
2017-09-08T08:11:19.844Z,60
2017-09-08T08:12:00.291Z,60
2017-09-08T08:12:40.739Z,50
2017-09-08T08:13:21.195Z,45
2017-09-08T08:14:01.645Z,30
2017-09-08T08:14:42.097Z,25
2017-09-08T08:15:22.550Z,20
2017-09-08T08:16:03.004Z,20
2017-09-08T08:16:43.453Z,20
2017-09-08T08:17:23.908Z,15
2017-09-08T08:18:04.369Z,15
2017-09-08T08:18:44.812Z,15
2017-09-08T08:19:25.261Z,15
2017-09-08T08:20:05.711Z,15
2017-09-08T08:20:46.164Z,15
2017-09-08T08:21:26.685Z,15
2017-09-08T08:22:07.136Z,15
2017-09-08T08:22:47.596Z,15
2017-09-08T08:23:28.048Z,15
2017-09-08T08:24:08.499Z,15
2017-09-08T08:24:48.952Z,15
2017-09-08T08:25:29.475Z,15
2017-09-08T08:26:09.938Z,15
2017-09-08T08:26:50.398Z,15
2017-09-08T08:27:30.856Z,15
2017-09-08T08:28:11.309Z,20
2017-09-08T08:28:51.767Z,20
2017-09-08T08:29:32.257Z,20
2017-09-08T08:30:12.710Z,20
2017-09-08T08:30:53.169Z,20
2017-09-08T08:31:33.625Z,20
2017-09-08T08:32:14.087Z,20
2017-09-08T08:32:54.544Z,20
2017-09-08T08:33:34.992Z,20
2017-09-08T08:34:15.448Z,20
2017-09-08T08:34:55.900Z,20
2017-09-08T08:35:36.352Z,20
2017-09-08T08:36:16.808Z,20
2017-09-08T08:36:57.253Z,15
2017-09-08T08:37:37.705Z,15
2017-09-08T08:38:18.181Z,15
2017-09-08T08:38:58.620Z,15
2017-09-08T08:39:39.064Z,15
2017-09-08T08:40:19.517Z,15
2017-09-08T08:41:00.016Z,20
2017-09-08T08:41:40.478Z,20
2017-09-08T08:42:20.929Z,20
2017-09-08T08:43:01.380Z,25
2017-09-08T08:43:41.832Z,25
2017-09-08T08:44:22.285Z,25
2017-09-08T08:45:02.738Z,25
2017-09-08T08:45:43.181Z,25
2017-09-08T08:46:23.650Z,25
2017-09-08T08:47:04.099Z,25
2017-09-08T08:47:44.562Z,25
2017-09-08T08:48:25.016Z,25
2017-09-08T08:49:05.473Z,20
2017-09-08T08:49:45.930Z,20
2017-09-08T08:50:26.390Z,20
2017-09-08T08:51:06.843Z,15
2017-09-08T08:51:47.296Z,15
2017-09-08T08:52:27.746Z,15
2017-09-08T08:53:08.201Z,15
2017-09-08T08:53:48.657Z,15
2017-09-08T08:54:29.109Z,15
2017-09-08T08:55:09.646Z,15
2017-09-08T08:55:50.111Z,10
2017-09-08T08:56:30.574Z,10
2017-09-08T08:57:11.094Z,10
2017-09-08T08:57:51.545Z,10
2017-09-08T08:58:31.998Z,10
2017-09-08T08:59:12.491Z,10
2017-09-08T08:59:52.946Z,10
2017-09-08T09:00:33.400Z,10
2017-09-08T09:01:13.859Z,10
2017-09-08T09:01:54.307Z,10
2017-09-08T09:02:34.810Z,10
2017-09-08T09:03:15.273Z,10
2017-09-08T09:03:55.737Z,10
2017-09-08T09:04:36.160Z,10
2017-09-08T09:05:16.608Z,10
2017-09-08T09:05:57.068Z,10
2017-09-08T09:06:37.517Z,10
2017-09-08T09:07:17.974Z,10
2017-09-08T09:07:58.424Z,10
2017-09-08T09:08:38.875Z,10
2017-09-08T09:09:19.332Z,10
2017-09-08T09:09:59.783Z,10
2017-09-08T09:10:40.234Z,15
2017-09-08T09:11:20.693Z,15
2017-09-08T09:12:01.151Z,15
2017-09-08T09:12:41.605Z,15
2017-09-08T09:13:22.058Z,15
2017-09-08T09:14:02.512Z,15
2017-09-08T09:14:42.966Z,15
2017-09-08T09:15:23.420Z,15
2017-09-08T09:16:03.876Z,15
2017-09-08T09:16:44.331Z,15
2017-09-08T09:17:24.785Z,15
2017-09-08T09:18:05.250Z,15
2017-09-08T09:18:45.706Z,20
2017-09-08T09:19:26.176Z,20
2017-09-08T09:20:06.629Z,20
2017-09-08T09:20:47.080Z,20
2017-09-08T09:21:27.561Z,25
2017-09-08T09:22:08.016Z,25
2017-09-08T09:22:48.477Z,25
2017-09-08T09:23:28.931Z,30
2017-09-08T09:24:09.393Z,25
2017-09-08T09:24:49.846Z,25
2017-09-08T09:25:30.305Z,20
2017-09-08T09:26:10.757Z,20
2017-09-08T09:26:51.210Z,20
2017-09-08T09:27:31.665Z,20
2017-09-08T09:28:12.136Z,15
2017-09-08T09:28:52.584Z,15
2017-09-08T09:29:33.044Z,15
2017-09-08T09:30:13.479Z,15
2017-09-08T09:30:53.932Z,15
2017-09-08T09:31:34.387Z,15
2017-09-08T09:32:14.844Z,15
2017-09-08T09:32:55.298Z,15
2017-09-08T09:33:35.753Z,15
2017-09-08T09:34:16.196Z,15
2017-09-08T09:34:56.647Z,10
2017-09-08T09:35:37.102Z,10
2017-09-08T09:36:17.548Z,10
2017-09-08T09:36:58.005Z,10
2017-09-08T09:37:38.487Z,15
2017-09-08T09:38:18.941Z,15
2017-09-08T09:38:59.396Z,15
2017-09-08T09:39:39.852Z,15
2017-09-08T09:40:20.305Z,15
2017-09-08T09:41:00.753Z,15
2017-09-08T09:41:41.199Z,15
2017-09-08T09:42:21.651Z,15
2017-09-08T09:43:02.110Z,15
2017-09-08T09:43:42.568Z,15
2017-09-08T09:44:23.047Z,15
2017-09-08T09:45:03.510Z,15
2017-09-08T09:45:43.975Z,15
2017-09-08T09:46:24.434Z,15
2017-09-08T09:47:04.885Z,15
2017-09-08T09:47:45.332Z,15
2017-09-08T09:48:25.787Z,15
2017-09-08T09:49:06.241Z,15
2017-09-08T09:49:46.695Z,15
2017-09-08T09:50:27.147Z,15
2017-09-08T09:51:07.599Z,15
2017-09-08T09:51:48.054Z,15
2017-09-08T09:52:28.505Z,15
2017-09-08T09:53:08.958Z,15
2017-09-08T09:53:49.420Z,15
2017-09-08T09:54:29.887Z,15
2017-09-08T09:55:10.352Z,15
2017-09-08T09:55:50.816Z,15
2017-09-08T09:56:31.267Z,15
2017-09-08T09:57:11.717Z,15
2017-09-08T09:57:52.173Z,15
2017-09-08T09:58:32.635Z,15
2017-09-08T09:59:13.077Z,15
2017-09-08T09:59:53.530Z,15
2017-09-08T10:00:33.983Z,15
2017-09-08T10:01:14.434Z,15
2017-09-08T10:01:54.888Z,15
2017-09-08T10:02:35.337Z,15
2017-09-08T10:03:15.786Z,15
2017-09-08T10:03:56.239Z,15
2017-09-08T10:04:36.697Z,15
2017-09-08T10:05:17.151Z,15
2017-09-08T10:05:57.609Z,20
2017-09-08T10:06:38.063Z,20
2017-09-08T10:07:18.522Z,20
2017-09-08T10:07:58.977Z,20